LECOLEAS

Guest
Details From LECO - A Coruna
To LEAS - Asturias
Flight Number -
Tags generated
Created
Modified
Stats Distance 104 nm / 192 km
Max Altitude 3,300 ft / 1,006 m
Waypoints 3
Social Downloads 3
Likes 0
Share VATSIM

Download

Looking for another format? Having issues loading an existing format? Contact us
Advertisement - Login to hide

Notes

Basic altitude profile: - Ascent Rate: 2500ft/min - Ascent Speed: 250kts - Cruise Altitude: 35000ft - Cruise Speed: 420kts - Descent Rate: 1500ft/min - Descent Speed: 250kts Options: - Use NATs: yes - Use PACOTS: yes - Use low airways: yes - Use high airways: yes

Route

LECO LURIM LEAS

ID Type Via Altitude Latitude Longitude Leg Dist Tot Dist Heading (true) Name
O LECO APT - 0 ft / 0 m 43.30226˚ -8.37709˚ - 0 nm - A Coruna
LURIM FIX - 3,300 ft / 1,006 m 43.47638˚ -6.37662˚ 87 nm 87 nm 82° / 84° -
O LEAS APT - 0 ft / 0 m 43.56350˚ -6.03467˚ 15 nm 103 nm 71° / 71° Asturias

Altitude Profile

Advertisement - Login to hide

LECO

Details ICAO LECO (LCG)
Name A Coruna
Region Spain
Timezone Europe/Madrid (UTC+1.0)
Stats Elevation 323 ft / 98 m (AMSL)
Location 43.302264° -8.377086°
Runways 1
Magnetic Variation 2.392° W

METAR

LECO 141300Z 28008KT 250V330 9999 FEW006 SCT025 14/11 Q1018 TEMPO 4000 -RA BKN010

Decode

TAF

TAF AMD TAF AMD LECO 141124Z 1411/1509 27009KT 8000 SCT010 BKN030 TX14/1414Z TN07/1506Z PROB30 TEMPO 1411/1509 4000 RA BKN010 PROB40 TEMPO 1506/1509 33010KT

Decode

Departure Runways

ID Width Length Bearing (true) Bearing (mag) Surface Threshold Offset Overrun Length
04 148 ft / 45 m 6,371 ft / 1,942 m 30.94° 33.33° Asphalt 0 ft / 0 m 194 ft / 59 m
22 148 ft / 45 m 6,371 ft / 1,942 m 210.94° 213.33° Asphalt 0 ft / 0 m 203 ft / 62 m

LEAS

Details ICAO LEAS (OVD)
Name Asturias
Region Spain
Timezone Europe/Madrid (UTC+1.0)
Stats Elevation 416 ft / 127 m (AMSL)
Location 43.563496° -6.034670°
Runways 1
Magnetic Variation 1.628° W

METAR

LEAS 141300Z 28016KT 250V320 1800 R11/0800N -RA BR SCT005 BKN006 BKN009 12/11 Q1015 TEMPO 6000 NSW

Decode

TAF

TAF AMD LEAS 141217Z 1412/1509 29009KT 9999 SCT025 BKN035 TX14/1415Z TN08/1507Z TEMPO 1412/1509 29016G28KT PROB30 TEMPO 1412/1418 3000 RA BKN010 TEMPO 1418/1509 3000 RA BKN010 PROB40 TEMPO 1503/1509 3000 SHRA SCT030TCU

Decode

Destination Runways

ID Width Length Bearing (true) Bearing (mag) Surface Threshold Offset Overrun Length
11 148 ft / 45 m 7,216 ft / 2,200 m 108.09° 109.72° Asphalt 0 ft / 0 m 164 ft / 50 m
29 148 ft / 45 m 7,216 ft / 2,200 m 288.10° 289.73° Asphalt 0 ft / 0 m 164 ft / 50 m

Approach Navaids

Runway Type Ident Frequency Range Bearing (true) Bearing (mag) Slope Elevation
29 Localiser AVS 110.10 MHz 18 nm / 33 km 288.30° 289.93° - 416 ft / 127 m (AMSL)
29 Glidescope AVS 110.10 MHz 10 nm / 19 km 288.09° 289.72° 3.00° 416 ft / 127 m (AMSL)
29 DME AVS 110.10 MHz 18 nm / 33 km - - - 430 ft / 131 m (AMSL)

Popular Alternatives